St Petersburg Clearwater International Airport St Petersburg-Clearwater US
ICAO: KPIE
IATA: PIE
Category: Medium
Scheduled Services: Yes

Elevation: 11 ft
TransAlt. 18000 ft.

Airport Communications:
TAMPA APP/DEP:125.3
ATIS:134.5
CLNC DEL:120.6
CTAF:118.3
GND:121.9
AIR CG:38.18
RDO:122.1
RDO:122.2
TWR:118.3
UNICOM:122.95

KPIE Zoom In..

If you have problems with the map follow the link
https://www.worldairports.se/pages/airport.php?
ICAO=KPIE

Runways:

(A) RW 04 length 5903 ft width 150 ft
---- / hdg 45

(B) RW 09 length 4712 ft width 150 ft
---- / hdg 93

(C) RW 18L length 9730 ft width 150 ft
ILS 109.10 / hdg 176

(D) RW 18R length 4000 ft width 75 ft
---- / hdg 176

(E) RW 22 length 5903 ft width 150 ft
---- / hdg 225

(F) RW 27 length 4712 ft width 150 ft
---- / hdg 273

(G) RW 36L length 4000 ft width 75 ft
---- / hdg 356

(H) RW 36R length 9730 ft width 150 ft
ILS 108.70 / hdg 356

Location; KPIE
Day. 11 / Time. 13.53 Zulu
* Altimeter: 30.19
* Temperature: 21° c. 69.8°f.
* Wind from: 000° Speed 00 kn.
Dewpoint: 20° c.
Visibility: 1 m.
Clouds: Overcast 200 ft.
Conditions: Mist.

KPIE 111353Z 00000KT 1 1/4SM BR OVC002 21/20 A3019 RMK AO2 SLP222 T02110200 $


Wind - Calm.

 
 
jpsmedia worldairports.se 2019   terms of use